createdAt,value
2023-01-11T00:00:36.155Z,72.00
2023-01-11T00:03:04.849Z,70.88
2023-01-11T00:05:32.643Z,70.39
2023-01-11T00:08:00.053Z,69.55
2023-01-11T00:10:33.035Z,69.02
2023-01-11T00:13:01.223Z,68.38
2023-01-11T00:15:28.447Z,68.51
2023-01-11T00:17:56.218Z,68.34
2023-01-11T00:20:24.897Z,67.60
2023-01-11T00:22:52.389Z,67.18
2023-01-11T00:25:20.914Z,67.15
2023-01-11T00:27:49.680Z,66.77
2023-01-11T00:30:18.743Z,67.11
2023-01-11T00:32:46.892Z,67.15
2023-01-11T00:35:14.123Z,67.06
2023-01-11T00:37:41.189Z,67.00
2023-01-11T00:40:09.080Z,67.11
2023-01-11T00:42:55.723Z,66.54
2023-01-11T00:45:41.909Z,66.56
2023-01-11T00:48:10.946Z,65.53
2023-01-11T00:50:40.415Z,65.27
2023-01-11T00:53:11.761Z,64.87
2023-01-11T00:55:39.280Z,63.80
2023-01-11T00:58:10.980Z,62.50
2023-01-11T01:00:38.320Z,62.51
2023-01-11T01:03:07.113Z,61.70
2023-01-11T01:05:37.292Z,61.27
2023-01-11T01:08:04.454Z,61.17
2023-01-11T01:10:32.492Z,61.34
2023-01-11T01:13:26.104Z,61.52
2023-01-11T01:15:58.760Z,61.36
2023-01-11T01:18:27.160Z,61.12
2023-01-11T01:20:54.366Z,60.96
2023-01-11T01:23:21.448Z,61.31
2023-01-11T01:25:48.840Z,61.44
2023-01-11T01:28:16.051Z,61.42
2023-01-11T01:30:44.721Z,61.60
2023-01-11T01:33:13.355Z,62.11
2023-01-11T01:35:43.654Z,61.67
2023-01-11T01:38:13.057Z,61.76
2023-01-11T01:40:43.735Z,62.14
2023-01-11T01:43:16.203Z,63.03
2023-01-11T01:45:45.765Z,62.90
2023-01-11T01:48:15.973Z,62.12
2023-01-11T01:50:53.859Z,62.68
2023-01-11T01:53:30.028Z,62.24
2023-01-11T01:55:58.957Z,62.71
2023-01-11T01:58:33.266Z,62.54
2023-01-11T02:01:20.318Z,63.41
2023-01-11T02:03:47.638Z,63.77
2023-01-11T02:06:17.056Z,63.61
2023-01-11T02:08:45.582Z,63.58
2023-01-11T02:11:30.146Z,63.59
2023-01-11T02:14:03.339Z,63.11
2023-01-11T02:16:31.833Z,62.74
2023-01-11T02:18:59.618Z,62.20
2023-01-11T02:21:57.349Z,62.06
2023-01-11T02:24:48.487Z,62.78
2023-01-11T02:27:39.443Z,62.88
2023-01-11T02:30:32.671Z,62.84
2023-01-11T02:33:07.241Z,63.24
2023-01-11T02:35:52.603Z,63.14
2023-01-11T02:38:33.822Z,62.76
2023-01-11T02:41:10.043Z,63.14
2023-01-11T02:44:21.108Z,63.35
2023-01-11T02:46:49.888Z,63.99
2023-01-11T02:49:40.684Z,64.15
2023-01-11T02:52:19.655Z,64.22
2023-01-11T02:54:48.272Z,64.53
2023-01-11T02:57:16.035Z,64.58
2023-01-11T02:59:44.727Z,64.54
2023-01-11T03:03:49.666Z,64.06
2023-01-11T03:06:20.317Z,63.93
2023-01-11T03:09:08.617Z,64.18
2023-01-11T03:11:57.814Z,64.87
2023-01-11T03:14:48.009Z,64.86
2023-01-11T03:17:30.268Z,64.98
2023-01-11T03:20:32.434Z,65.36
2023-01-11T03:23:18.846Z,65.84
2023-01-11T03:26:23.426Z,66.00
2023-01-11T03:29:06.403Z,66.43
2023-01-11T03:31:53.651Z,67.07
2023-01-11T03:34:23.936Z,67.56
2023-01-11T03:36:59.342Z,67.10
2023-01-11T03:39:36.298Z,67.27
2023-01-11T03:42:07.407Z,67.39
2023-01-11T03:44:42.377Z,67.72
2023-01-11T03:47:13.128Z,67.46
2023-01-11T06:05:02.501Z,69.77
2023-01-11T06:07:30.540Z,68.88
2023-01-11T06:09:59.888Z,68.59
2023-01-11T06:12:27.506Z,68.85
2023-01-11T06:14:59.042Z,68.64
2023-01-11T06:17:27.470Z,68.27
2023-01-11T06:19:56.521Z,68.05
2023-01-11T06:22:26.403Z,67.61
2023-01-11T06:24:53.776Z,67.95
2023-01-11T06:27:25.516Z,68.01
2023-01-11T06:29:53.456Z,67.75
2023-01-11T06:32:21.683Z,67.53
2023-01-11T06:34:49.090Z,67.49
2023-01-11T06:37:16.517Z,67.89
2023-01-11T06:39:44.005Z,68.07
2023-01-11T06:42:11.519Z,68.13
2023-01-11T06:44:38.879Z,68.38
2023-01-11T06:47:07.251Z,68.46
2023-01-11T06:49:36.033Z,68.35
2023-01-11T06:52:07.354Z,68.22
2023-01-11T08:19:33.065Z,61.34
2023-01-11T08:22:01.747Z,59.34
2023-01-11T08:24:31.525Z,58.38
2023-01-11T08:27:03.594Z,57.07
2023-01-11T08:29:32.084Z,55.57
2023-01-11T08:32:03.961Z,54.36
2023-01-11T08:34:33.668Z,54.59
2023-01-11T08:37:02.555Z,54.86
2023-01-11T08:39:33.277Z,55.54
2023-01-11T08:42:02.783Z,56.19
2023-01-11T08:44:34.082Z,56.95
2023-01-11T08:47:05.796Z,57.26
2023-01-11T08:49:34.518Z,57.36
2023-01-11T08:52:01.943Z,57.51
2023-01-11T08:54:30.262Z,58.11
2023-01-11T08:56:59.810Z,58.13
2023-01-11T08:59:28.222Z,58.34
2023-01-11T09:01:57.412Z,57.47
2023-01-11T09:04:26.264Z,56.99
2023-01-11T09:06:55.280Z,56.73
2023-01-11T09:09:24.148Z,56.62
2023-01-11T09:11:54.349Z,56.57
2023-01-11T09:14:24.662Z,56.91
2023-01-11T09:16:53.700Z,57.66
2023-01-11T09:19:21.763Z,57.84
2023-01-11T09:21:51.676Z,58.00
2023-01-11T09:24:21.192Z,58.09
2023-01-11T09:26:51.976Z,58.20
2023-01-11T09:29:22.649Z,57.91
2023-01-11T09:31:51.781Z,56.45
2023-01-11T09:34:26.782Z,55.57
2023-01-11T09:36:59.162Z,54.49
2023-01-11T09:39:29.229Z,53.87
2023-01-11T09:42:25.041Z,53.28
2023-01-11T09:45:23.324Z,52.61
2023-01-11T09:48:26.482Z,52.73
2023-01-11T09:50:56.460Z,53.24
2023-01-11T09:53:37.216Z,53.45
2023-01-11T09:56:08.712Z,54.10
2023-01-11T09:59:19.017Z,54.21
2023-01-11T10:02:00.974Z,54.30
2023-01-11T10:04:41.758Z,54.81
2023-01-11T10:07:51.196Z,55.36
2023-01-11T10:18:22.341Z,56.87
2023-01-11T10:18:27.913Z,57.11
2023-01-11T10:20:48.151Z,57.31
2023-01-11T10:23:24.968Z,57.25
2023-01-11T10:25:56.208Z,57.38
2023-01-11T10:28:33.424Z,57.21
2023-01-11T10:31:30.404Z,57.75
2023-01-11T10:34:32.618Z,57.72
2023-01-11T10:38:04.888Z,57.56
2023-01-11T10:41:03.617Z,57.80
2023-01-11T10:43:35.075Z,58.04
2023-01-11T10:46:11.359Z,58.18
2023-01-11T10:48:42.879Z,58.08
2023-01-11T10:51:26.783Z,57.66
2023-01-11T10:54:06.876Z,57.79
2023-01-11T10:57:02.808Z,58.29
2023-01-11T10:59:46.868Z,58.84
2023-01-11T11:02:51.480Z,58.54
2023-01-11T11:05:27.296Z,58.34
2023-01-11T11:08:10.833Z,57.83
2023-01-11T11:11:37.936Z,57.99
2023-01-11T11:14:28.720Z,58.09
2023-01-11T11:17:25.331Z,58.28
2023-01-11T11:19:52.823Z,58.16
2023-01-11T11:22:20.757Z,58.59
2023-01-11T11:25:05.327Z,58.73
2023-01-11T11:27:49.738Z,58.88
2023-01-11T11:30:37.726Z,59.24
2023-01-11T11:33:31.377Z,59.14
2023-01-11T11:36:10.367Z,59.10
2023-01-11T11:38:39.355Z,58.99
2023-01-11T11:41:18.183Z,59.01
2023-01-11T11:43:50.752Z,59.05
2023-01-11T11:46:29.520Z,59.46
2023-01-11T11:49:17.694Z,59.72
2023-01-11T11:51:50.464Z,59.93
2023-01-11T11:54:29.380Z,59.48
2023-01-11T11:56:57.978Z,59.78
2023-01-11T16:16:40.954Z,70.39
2023-01-11T16:19:15.399Z,70.06
2023-01-11T16:21:43.915Z,69.85
2023-01-11T16:24:17.323Z,69.55
2023-01-11T16:26:44.489Z,69.43
2023-01-11T16:29:20.667Z,69.29
2023-01-11T16:32:20.267Z,69.38
2023-01-11T16:34:56.867Z,69.43
2023-01-11T16:37:58.488Z,69.42
2023-01-11T16:40:40.265Z,69.54
2023-01-11T16:43:28.025Z,69.39
2023-01-11T16:46:05.970Z,69.64
2023-01-11T16:48:40.681Z,69.42
2023-01-11T16:51:17.144Z,69.33
2023-01-11T16:53:58.756Z,69.33
2023-01-11T16:56:29.236Z,69.47
2023-01-11T16:59:47.687Z,69.57
2023-01-11T17:02:29.426Z,69.43
2023-01-11T17:04:58.608Z,69.39
2023-01-11T17:07:34.421Z,69.45
2023-01-11T17:10:24.283Z,69.32
2023-01-11T17:13:08.548Z,69.57
2023-01-11T17:16:12.864Z,69.68
2023-01-11T17:19:05.937Z,69.52
2023-01-11T17:21:46.345Z,69.54
2023-01-11T17:24:17.438Z,69.85
2023-01-11T17:26:46.710Z,69.79
2023-01-11T17:29:36.222Z,70.03
2023-01-11T17:32:10.291Z,70.17
2023-01-11T17:34:40.278Z,70.25
2023-01-11T17:37:25.611Z,70.45
2023-01-11T17:39:58.393Z,70.48
2023-01-11T17:42:44.794Z,70.69
2023-01-11T17:45:29.608Z,70.37
2023-01-11T17:47:59.198Z,70.44
2023-01-11T17:50:33.654Z,70.21
2023-01-11T17:53:20.735Z,70.43
2023-01-11T17:55:56.301Z,70.35
2023-01-11T17:58:28.103Z,69.99
2023-01-11T18:01:08.128Z,70.15
2023-01-11T18:03:48.777Z,70.17
2023-01-11T18:06:34.722Z,70.17
2023-01-11T18:09:04.831Z,70.09
2023-01-11T18:11:40.126Z,70.44
2023-01-11T18:14:18.169Z,70.34
2023-01-11T18:17:03.766Z,70.28
2023-01-11T18:20:22.665Z,70.38
2023-01-11T18:23:25.131Z,70.38
2023-01-11T18:26:35.504Z,70.33
2023-01-11T18:29:39.184Z,70.44
2023-01-11T18:32:09.923Z,70.38
2023-01-11T18:34:39.832Z,70.54
2023-01-11T18:37:09.480Z,70.62
2023-01-11T18:39:36.909Z,70.84
2023-01-11T18:42:15.408Z,70.95
2023-01-11T18:44:45.059Z,70.91
2023-01-11T18:47:22.661Z,71.06
2023-01-11T18:50:07.926Z,71.33
2023-01-11T18:52:37.364Z,71.55
2023-01-11T18:55:05.227Z,71.32
2023-01-11T18:57:35.209Z,71.63
2023-01-11T19:00:04.779Z,71.60
2023-01-11T19:02:45.581Z,72.03
2023-01-11T19:05:38.790Z,72.27
2023-01-11T19:08:32.271Z,72.23
2023-01-11T19:11:03.938Z,72.52
2023-01-11T19:13:36.674Z,72.54
2023-01-11T19:16:05.795Z,72.45
2023-01-11T19:18:35.329Z,72.31
2023-01-11T19:21:10.717Z,72.71
2023-01-11T19:23:41.809Z,72.84
2023-01-11T19:26:13.980Z,72.81
2023-01-11T19:28:43.774Z,72.84
2023-01-11T19:31:14.868Z,73.14
2023-01-11T19:33:44.513Z,72.93
2023-01-11T19:36:14.370Z,72.78
2023-01-11T19:38:44.281Z,72.89
2023-01-11T19:41:15.536Z,72.89
2023-01-11T19:43:47.436Z,72.83
2023-01-11T19:46:30.726Z,73.23
2023-01-11T19:49:31.401Z,73.44
2023-01-11T19:52:00.694Z,73.23
2023-01-11T19:54:30.507Z,73.45
2023-01-11T19:56:58.701Z,73.54
2023-01-11T19:59:27.681Z,73.59
2023-01-11T22:08:54.117Z,82.35
2023-01-11T22:11:23.648Z,81.86
2023-01-11T22:13:52.020Z,81.94
2023-01-11T22:16:24.282Z,81.62
2023-01-11T22:18:52.859Z,81.82
2023-01-11T22:21:22.300Z,81.39
2023-01-11T22:24:05.601Z,81.60
2023-01-11T22:26:52.868Z,81.41
2023-01-11T22:29:30.550Z,81.32
2023-01-11T22:32:20.543Z,81.34
2023-01-11T22:35:02.999Z,81.32
2023-01-11T22:37:37.677Z,81.06
2023-01-11T22:40:28.660Z,81.07
2023-01-11T22:43:04.095Z,81.23
2023-01-11T22:45:33.137Z,81.33
2023-01-11T22:48:00.421Z,81.32
2023-01-11T22:50:31.689Z,81.37
2023-01-11T22:53:00.983Z,81.75
2023-01-11T22:55:34.493Z,81.47
2023-01-11T22:58:01.692Z,81.67
2023-01-11T23:00:30.622Z,82.01
2023-01-11T23:03:00.203Z,82.23
2023-01-11T23:05:28.513Z,82.38
2023-01-11T23:07:56.214Z,82.41
2023-01-11T23:10:25.193Z,82.33
2023-01-11T23:13:11.768Z,82.29
2023-01-11T23:15:39.800Z,82.34
2023-01-11T23:18:09.151Z,82.67
2023-01-11T23:20:43.208Z,82.63
2023-01-11T23:23:11.233Z,82.70
2023-01-11T23:25:43.080Z,82.71
2023-01-11T23:28:11.413Z,82.80
2023-01-11T23:30:38.825Z,82.88
2023-01-11T23:33:10.868Z,82.73
2023-01-11T23:35:42.542Z,82.89
2023-01-11T23:38:09.878Z,82.65
2023-01-11T23:40:57.928Z,82.84
2023-01-11T23:43:25.387Z,83.16
2023-01-11T23:46:13.564Z,82.77
2023-01-11T23:48:41.208Z,83.01
2023-01-11T23:51:08.297Z,83.25
2023-01-11T23:53:36.706Z,83.08
2023-01-11T23:56:05.113Z,83.17
2023-01-11T23:58:32.717Z,83.34
